< < Back
Terminal Aerodrome Forecast


Current Version              Previous Versions:   1  2  3  4  5  6  7  8  9  

Terminal Aerodrome Forecast

683
FTUS44 KBMX 060520
TAFTCL
TAF
KTCL 060520Z 0606/0706 01010KT P6SM SKC
     FM061400 34012G20KT P6SM SCT070
     FM070100 33008KT P6SM SKC=

Latest METAR

679
SAUS70 KWBC 060700 RRK
MTRTCL
METAR KTCL 060653Z AUTO 00000KT 10SM CLR 11/06 A2998 RMK AO2 SLP151
T01060056


USA.gov is the U.S. government's official web portal to all federal, state and local government web resources and services.